K6P9

Ranger Airport

Ranger, Texas, USA
METAR K6P9 260535Z AUTO 26006KT 10SM CLR 07/07 A3012 RMK AO2 T00730072
Observed Flight Rules
Apr-26 @ 05:35 UTC (24 minutes ago) Visual Flight Rules
Wind Visibility Clouds
260° at 6 knots 10 miles
  • Clear skies
Temperatures Readings
Current 7°C / 45°F
Dewpoint 7°C / 45°F
Humidity 100%
Altimeter 30.12" Hg
Pressure 1020 hPa
Elevation 449
METAR K6P9 260535Z AUTO 26006KT 10SM CLR 07/07 A3012 RMK AO2 T00730072
Observed Flight Rules
Apr-26 @ 05:35 UTC
(24 minutes ago)
VFR
Wind Visibility
260° at 6 knots 10 miles
Clouds
  • Clear skies
Temperature Dewpoint
7°C / 45°F 7°C / 45°F
Humidity Altimeter Pressure
100% 30.12" Hg 1020 hPa